createdAt,value
2019-03-30T00:02:24.541Z,4.10
2019-03-30T00:04:55.327Z,3.43
2019-03-30T00:07:27.187Z,3.83
2019-03-30T00:09:57.488Z,3.93
2019-03-30T00:12:29.340Z,4.00
2019-03-30T00:15:01.462Z,3.30
2019-03-30T00:17:33.118Z,4.03
2019-03-30T00:20:03.157Z,4.03
2019-03-30T00:22:35.524Z,4.30
2019-03-30T00:25:07.889Z,3.50
2019-03-30T00:27:39.655Z,3.63
2019-03-30T00:30:11.072Z,3.80
2019-03-30T00:32:43.945Z,4.07
2019-03-30T00:35:17.659Z,4.10
2019-03-30T00:37:51.070Z,4.30
2019-03-30T00:40:21.086Z,3.80
2019-03-30T00:42:52.861Z,4.57
2019-03-30T00:45:23.689Z,3.97
2019-03-30T00:47:58.929Z,4.10
2019-03-30T00:50:30.614Z,4.03
2019-03-30T00:53:01.361Z,3.97
2019-03-30T00:55:33.915Z,3.70
2019-03-30T00:58:07.428Z,3.73
2019-03-30T01:00:38.565Z,4.27
2019-03-30T01:03:11.394Z,3.57
2019-03-30T01:05:42.166Z,3.93
2019-03-30T01:08:16.102Z,4.07
2019-03-30T01:10:47.206Z,4.37
2019-03-30T01:13:17.954Z,4.50
2019-03-30T01:15:50.321Z,4.37
2019-03-30T01:18:21.543Z,3.60
2019-03-30T01:20:52.240Z,4.40
2019-03-30T01:23:26.649Z,4.43
2019-03-30T01:25:59.006Z,4.17
2019-03-30T01:28:30.301Z,4.10
2019-03-30T01:31:01.278Z,4.43
2019-03-30T01:33:32.649Z,4.27
2019-03-30T01:36:06.550Z,4.60
2019-03-30T01:38:37.273Z,4.60
2019-03-30T01:41:07.925Z,4.30
2019-03-30T01:43:39.896Z,4.20
2019-03-30T01:46:11.180Z,3.87
2019-03-30T01:48:41.461Z,5.17
2019-03-30T01:51:12.201Z,4.03
2019-03-30T01:53:45.014Z,4.83
2019-03-30T01:56:16.168Z,4.30
2019-03-30T01:58:46.706Z,4.40
2019-03-30T02:01:19.609Z,4.27
2019-03-30T02:03:52.321Z,4.60
2019-03-30T02:06:23.316Z,4.40
2019-03-30T02:08:54.167Z,4.20
2019-03-30T02:11:27.034Z,4.80
2019-03-30T02:13:57.493Z,4.53
2019-03-30T02:16:28.244Z,4.77
2019-03-30T02:19:00.490Z,4.73
2019-03-30T02:21:32.186Z,4.50
2019-03-30T02:24:04.012Z,3.73
2019-03-30T02:26:36.138Z,4.87
2019-03-30T02:29:07.332Z,4.50
2019-03-30T02:31:38.018Z,5.07
2019-03-30T02:34:11.651Z,4.30
2019-03-30T02:36:44.002Z,4.50
2019-03-30T02:39:16.942Z,4.90
2019-03-30T02:41:47.713Z,4.10
2019-03-30T02:44:19.579Z,4.00
2019-03-30T02:46:51.892Z,4.40
2019-03-30T02:49:22.433Z,4.40
2019-03-30T02:51:53.178Z,4.03
2019-03-30T02:54:24.185Z,4.40
2019-03-30T02:56:54.867Z,4.37
2019-03-30T02:59:27.235Z,4.40
2019-03-30T03:01:59.091Z,3.73
2019-03-30T03:04:33.165Z,4.43
2019-03-30T03:07:03.974Z,4.63
2019-03-30T03:09:36.183Z,4.37
2019-03-30T03:12:08.122Z,4.60
2019-03-30T03:14:41.091Z,4.20
2019-03-30T03:17:15.528Z,4.70
2019-03-30T03:19:46.866Z,4.33
2019-03-30T03:22:17.517Z,4.67
2019-03-30T03:24:48.665Z,4.40
2019-03-30T03:27:21.642Z,4.37
2019-03-30T03:29:52.452Z,4.13
2019-03-30T03:32:25.802Z,4.50
2019-03-30T03:34:56.155Z,4.30
2019-03-30T03:37:43.231Z,4.40
2019-03-30T03:40:04.853Z,4.43
2019-03-30T03:42:35.577Z,4.50
2019-03-30T03:45:08.120Z,4.23
2019-03-30T03:47:41.595Z,4.23
2019-03-30T03:50:14.015Z,4.63
2019-03-30T03:52:47.888Z,4.27
2019-03-30T03:55:21.659Z,4.70
2019-03-30T03:57:52.458Z,4.33
2019-03-30T04:00:26.065Z,4.47
2019-03-30T04:02:58.437Z,4.30
2019-03-30T04:05:31.282Z,4.83
2019-03-30T04:08:05.397Z,3.70
2019-03-30T04:10:39.337Z,4.37
2019-03-30T04:13:09.729Z,4.10
2019-03-30T04:15:41.022Z,4.20
2019-03-30T04:18:13.553Z,3.87
2019-03-30T04:20:46.792Z,4.40
2019-03-30T04:23:19.511Z,4.40
2019-03-30T04:25:57.163Z,4.50
2019-03-30T04:28:27.129Z,3.73
2019-03-30T04:30:57.721Z,3.97
2019-03-30T04:33:29.406Z,4.37
2019-03-30T04:36:00.822Z,3.93
2019-03-30T04:38:33.106Z,4.73
2019-03-30T04:41:07.414Z,3.80
2019-03-30T04:43:39.253Z,4.07
2019-03-30T04:46:12.537Z,4.70
2019-03-30T04:48:44.253Z,3.47
2019-03-30T04:51:17.688Z,4.20
2019-03-30T04:53:50.709Z,3.50
2019-03-30T04:56:21.832Z,4.00
2019-03-30T04:58:55.241Z,3.90
2019-03-30T05:01:28.310Z,3.60
2019-03-30T05:03:59.069Z,3.70
2019-03-30T05:06:30.329Z,4.10
2019-03-30T05:09:01.601Z,4.37
2019-03-30T05:11:33.794Z,3.67
2019-03-30T05:14:05.848Z,4.10
2019-03-30T05:16:37.423Z,4.50
2019-03-30T05:19:09.726Z,4.43
2019-03-30T05:21:42.245Z,4.10
2019-03-30T05:24:12.481Z,4.43
2019-03-30T05:26:42.613Z,4.37
2019-03-30T05:29:13.035Z,4.43
2019-03-30T05:31:44.145Z,4.73
2019-03-30T05:34:17.085Z,4.47
2019-03-30T05:36:48.731Z,4.43
2019-03-30T05:39:20.254Z,4.67
2019-03-30T05:41:50.606Z,4.20
2019-03-30T05:44:20.778Z,4.37
2019-03-30T05:46:51.865Z,3.80
2019-03-30T05:49:25.440Z,4.17
2019-03-30T05:51:55.809Z,4.33
2019-03-30T05:54:26.061Z,3.97
2019-03-30T05:56:55.977Z,4.00
2019-03-30T05:59:27.750Z,4.13
2019-03-30T06:01:57.989Z,3.70
2019-03-30T06:04:30.651Z,4.00
2019-03-30T06:07:01.284Z,4.90
2019-03-30T06:09:33.593Z,3.93
2019-03-30T06:12:04.569Z,3.60
2019-03-30T06:14:35.683Z,3.90
2019-03-30T06:17:06.948Z,3.77
2019-03-30T06:19:37.949Z,4.20
2019-03-30T06:22:08.681Z,3.50
2019-03-30T06:24:40.719Z,4.20
2019-03-30T06:27:11.725Z,3.70
2019-03-30T06:29:42.289Z,4.07
2019-03-30T06:32:12.959Z,3.87
2019-03-30T06:34:45.264Z,3.87
2019-03-30T06:37:17.017Z,3.70
2019-03-30T06:39:48.684Z,4.40
2019-03-30T06:42:19.522Z,4.13
2019-03-30T06:44:49.342Z,3.80
2019-03-30T06:47:20.019Z,4.40
2019-03-30T06:49:50.649Z,3.63
2019-03-30T06:52:22.167Z,3.63
2019-03-30T06:54:52.829Z,3.77
2019-03-30T06:57:23.274Z,4.50
2019-03-30T06:59:54.034Z,4.53
2019-03-30T07:02:25.917Z,3.67
2019-03-30T07:05:00.059Z,3.67
2019-03-30T07:07:30.987Z,3.23
2019-03-30T07:10:05.753Z,3.90
2019-03-30T07:12:40.277Z,3.57
2019-03-30T07:15:13.152Z,3.90
2019-03-30T07:18:05.509Z,3.57
2019-03-30T07:20:37.156Z,3.80
2019-03-30T07:23:12.234Z,3.30
2019-03-30T07:25:39.847Z,4.00
2019-03-30T07:28:10.633Z,3.30
2019-03-30T07:30:41.818Z,3.47
2019-03-30T07:33:13.049Z,3.00
2019-03-30T07:35:46.833Z,3.10
2019-03-30T07:38:18.265Z,3.40
2019-03-30T07:40:49.501Z,3.20
2019-03-30T07:43:19.896Z,3.50
2019-03-30T07:45:51.165Z,3.20
2019-03-30T07:48:20.898Z,3.13
2019-03-30T07:50:52.545Z,3.13
2019-03-30T07:53:26.539Z,3.17
2019-03-30T07:56:08.264Z,2.97
2019-03-30T07:58:31.198Z,3.67
2019-03-30T08:01:01.892Z,2.97
2019-03-30T08:03:35.011Z,2.70
2019-03-30T08:06:08.306Z,3.03
2019-03-30T08:08:42.668Z,3.73
2019-03-30T08:11:15.801Z,3.60
2019-03-30T08:13:48.105Z,3.00
2019-03-30T08:16:19.789Z,2.70
2019-03-30T08:18:51.037Z,3.10
2019-03-30T08:21:25.551Z,3.03
2019-03-30T08:23:55.627Z,3.23
2019-03-30T08:26:26.259Z,2.67
2019-03-30T08:29:00.509Z,2.70
2019-03-30T08:31:32.204Z,2.90
2019-03-30T08:34:03.111Z,2.50
2019-03-30T08:36:34.301Z,3.00
2019-03-30T08:39:06.381Z,2.77
2019-03-30T08:41:36.996Z,2.80
2019-03-30T08:44:07.040Z,2.63
2019-03-30T08:46:37.873Z,2.37
2019-03-30T08:49:11.799Z,2.90
2019-03-30T08:51:42.790Z,3.03
2019-03-30T08:54:14.121Z,2.33
2019-03-30T08:56:47.449Z,2.40
2019-03-30T08:59:21.596Z,2.30
2019-03-30T09:01:53.998Z,2.60
2019-03-30T09:04:25.138Z,2.23
2019-03-30T09:06:56.153Z,2.50
2019-03-30T09:16:52.729Z,2.40
2019-03-30T09:19:24.910Z,2.57
2019-03-30T09:21:56.689Z,2.40
2019-03-30T09:24:31.529Z,2.47
2019-03-30T09:27:03.277Z,2.57
2019-03-30T09:29:37.920Z,2.17
2019-03-30T09:32:18.701Z,2.17
2019-03-30T09:35:05.940Z,2.60
2019-03-30T09:37:38.822Z,2.57
2019-03-30T09:40:10.693Z,2.30
2019-03-30T09:42:41.173Z,2.50
2019-03-30T09:45:13.289Z,2.17
2019-03-30T09:47:45.385Z,2.43
2019-03-30T09:50:19.058Z,2.37
2019-03-30T09:52:50.789Z,2.30
2019-03-30T09:55:27.087Z,2.83
2019-03-30T09:57:58.377Z,2.50
2019-03-30T10:00:33.095Z,2.43
2019-03-30T10:03:06.680Z,2.87
2019-03-30T10:05:38.949Z,2.27
2019-03-30T10:08:10.134Z,2.30
2019-03-30T10:10:43.758Z,1.83
2019-03-30T10:13:14.505Z,2.13
2019-03-30T10:15:49.974Z,2.20
2019-03-30T10:18:22.482Z,2.40
2019-03-30T10:20:53.745Z,2.17
2019-03-30T10:23:29.561Z,2.20
2019-03-30T10:26:01.850Z,2.30
2019-03-30T10:28:42.738Z,1.90
2019-03-30T10:31:12.935Z,2.10
2019-03-30T10:33:45.385Z,2.13
2019-03-30T10:36:16.238Z,2.03
2019-03-30T10:38:48.749Z,2.10
2019-03-30T10:41:19.498Z,2.10
2019-03-30T10:43:51.096Z,1.83
2019-03-30T10:46:22.084Z,2.20
2019-03-30T10:48:52.521Z,1.70
2019-03-30T10:51:23.818Z,1.83
2019-03-30T10:54:00.097Z,2.30
2019-03-30T10:56:31.904Z,2.63
2019-03-30T10:59:02.122Z,2.10
2019-03-30T11:01:33.839Z,2.10
2019-03-30T11:04:04.723Z,2.10
2019-03-30T11:06:36.050Z,1.97
2019-03-30T11:09:07.758Z,2.23
2019-03-30T11:11:38.656Z,2.13
2019-03-30T11:14:10.912Z,1.87
2019-03-30T11:16:51.149Z,2.30
2019-03-30T11:19:23.304Z,1.80
2019-03-30T11:21:54.617Z,2.93
2019-03-30T11:24:25.971Z,2.03
2019-03-30T11:26:57.986Z,2.07
2019-03-30T11:29:28.729Z,1.90
2019-03-30T11:31:59.569Z,2.03
2019-03-30T11:34:32.506Z,2.10
2019-03-30T11:37:04.825Z,2.43
2019-03-30T11:39:35.025Z,2.10
2019-03-30T11:42:07.065Z,1.80
2019-03-30T11:44:38.958Z,1.93
2019-03-30T11:47:12.463Z,2.20
2019-03-30T11:49:43.268Z,1.80
2019-03-30T11:52:15.550Z,1.90
2019-03-30T11:54:46.473Z,1.87
2019-03-30T11:57:20.960Z,1.80
2019-03-30T11:59:51.641Z,2.10
2019-03-30T12:02:28.284Z,1.70
2019-03-30T12:04:54.604Z,1.97
2019-03-30T12:07:28.653Z,1.83
2019-03-30T12:09:59.987Z,1.70
2019-03-30T12:12:37.751Z,1.80
2019-03-30T12:15:10.232Z,2.10
2019-03-30T12:17:42.374Z,1.90
2019-03-30T12:20:12.670Z,1.83
2019-03-30T12:22:43.293Z,2.13
2019-03-30T12:25:14.573Z,1.90
2019-03-30T12:27:45.893Z,2.13
2019-03-30T12:30:18.415Z,1.93
2019-03-30T12:32:51.691Z,2.30
2019-03-30T12:35:23.508Z,2.07
2019-03-30T12:37:54.873Z,1.80
2019-03-30T12:40:26.116Z,1.67
2019-03-30T12:42:59.397Z,1.77
2019-03-30T12:45:29.741Z,1.90
2019-03-30T12:48:00.740Z,2.17
2019-03-30T12:50:32.880Z,1.70
2019-03-30T12:53:05.210Z,1.90
2019-03-30T12:55:48.711Z,2.03
2019-03-30T12:58:08.789Z,2.23
2019-03-30T13:00:41.105Z,2.07
2019-03-30T13:03:13.889Z,1.63
2019-03-30T13:05:47.809Z,1.77
2019-03-30T13:08:18.523Z,1.67
2019-03-30T13:10:49.994Z,1.60
2019-03-30T13:13:25.465Z,1.90
2019-03-30T13:15:55.804Z,1.90
2019-03-30T13:18:27.769Z,1.90
2019-03-30T13:21:02.249Z,1.60
2019-03-30T13:23:32.549Z,1.70
2019-03-30T13:26:04.455Z,1.40
2019-03-30T13:28:35.670Z,1.77
2019-03-30T13:31:06.750Z,1.80
2019-03-30T13:33:40.569Z,1.83
2019-03-30T13:36:11.627Z,1.60
2019-03-30T13:38:43.381Z,2.20
2019-03-30T13:41:14.552Z,1.70
2019-03-30T13:43:45.438Z,1.63
2019-03-30T13:46:16.075Z,2.30
2019-03-30T13:48:49.290Z,2.00
2019-03-30T13:51:20.141Z,1.90
2019-03-30T13:53:51.182Z,1.90
2019-03-30T13:56:21.921Z,1.80
2019-03-30T13:58:53.612Z,2.10
2019-03-30T14:01:29.661Z,2.07
2019-03-30T14:04:02.106Z,1.87
2019-03-30T14:06:35.376Z,2.50
2019-03-30T14:09:07.567Z,2.17
2019-03-30T14:11:40.126Z,2.23
2019-03-30T14:14:10.933Z,2.17
2019-03-30T14:16:40.935Z,1.93
2019-03-30T14:19:15.206Z,1.70
2019-03-30T14:21:46.842Z,2.00
2019-03-30T14:24:19.545Z,2.20
2019-03-30T14:26:49.565Z,2.00
2019-03-30T14:29:21.937Z,2.23
2019-03-30T14:31:52.509Z,2.17
2019-03-30T14:34:23.072Z,2.43
2019-03-30T14:36:53.873Z,2.77
2019-03-30T14:39:27.645Z,2.20
2019-03-30T14:42:21.293Z,2.77
2019-03-30T14:44:52.766Z,2.47
2019-03-30T14:47:24.817Z,2.23
2019-03-30T14:49:59.990Z,2.60
2019-03-30T14:52:30.796Z,1.77
2019-03-30T14:55:01.010Z,2.30
2019-03-30T14:57:31.817Z,1.90
2019-03-30T15:00:03.236Z,2.33
2019-03-30T15:02:34.549Z,2.40
2019-03-30T15:05:18.424Z,1.80
2019-03-30T15:07:49.814Z,2.00
2019-03-30T15:10:20.859Z,1.70
2019-03-30T15:12:51.392Z,2.00
2019-03-30T15:15:24.149Z,1.70
2019-03-30T15:17:55.660Z,2.30
2019-03-30T15:20:29.907Z,1.83
2019-03-30T15:23:01.550Z,2.23
2019-03-30T15:25:32.901Z,1.97
2019-03-30T15:28:06.113Z,2.80
2019-03-30T15:30:36.422Z,2.13
2019-03-30T15:33:07.009Z,2.10
2019-03-30T15:35:36.993Z,2.33
2019-03-30T15:38:07.129Z,2.20
2019-03-30T15:40:38.389Z,2.30
2019-03-30T15:43:09.198Z,1.93
2019-03-30T15:46:09.707Z,2.07
2019-03-30T15:48:41.262Z,2.10
2019-03-30T15:51:12.567Z,2.03
2019-03-30T15:53:42.824Z,1.97
2019-03-30T15:56:14.838Z,1.97
2019-03-30T15:58:51.793Z,2.27
2019-03-30T16:01:23.205Z,2.47
2019-03-30T16:03:53.370Z,2.20
2019-03-30T16:06:34.201Z,2.60
2019-03-30T16:09:06.660Z,2.07
2019-03-30T16:11:37.468Z,2.23
2019-03-30T16:14:15.453Z,2.20
2019-03-30T16:16:48.123Z,2.03
2019-03-30T16:19:21.354Z,2.30
2019-03-30T16:21:53.148Z,2.17
2019-03-30T16:24:30.133Z,2.47
2019-03-30T16:27:00.114Z,2.40
2019-03-30T16:29:31.889Z,2.40
2019-03-30T16:32:06.073Z,2.40
2019-03-30T16:34:38.395Z,2.67
2019-03-30T16:37:10.273Z,2.40
2019-03-30T16:39:41.401Z,2.40
2019-03-30T16:42:14.038Z,2.87
2019-03-30T16:44:46.248Z,2.67
2019-03-30T16:47:16.896Z,2.30
2019-03-30T16:49:49.355Z,2.90
2019-03-30T16:52:21.117Z,2.50
2019-03-30T16:54:52.236Z,3.10
2019-03-30T16:57:27.372Z,2.63
2019-03-30T16:59:58.140Z,2.60
2019-03-30T17:02:30.595Z,2.93
2019-03-30T17:05:01.914Z,2.53
2019-03-30T17:07:37.003Z,3.03
2019-03-30T17:10:10.037Z,2.57
2019-03-30T17:12:44.314Z,2.80
2019-03-30T17:15:16.117Z,2.87
2019-03-30T17:17:48.809Z,2.77
2019-03-30T17:20:21.852Z,2.90
2019-03-30T17:22:52.165Z,2.83
2019-03-30T17:25:22.875Z,2.60
2019-03-30T17:27:58.494Z,3.33
2019-03-30T17:30:25.497Z,3.33
2019-03-30T17:32:58.497Z,2.63
2019-03-30T17:35:28.781Z,2.97
2019-03-30T17:38:00.607Z,3.20
2019-03-30T17:40:32.649Z,2.93
2019-03-30T17:43:03.493Z,2.83
2019-03-30T17:45:33.597Z,3.50
2019-03-30T17:48:04.985Z,2.60
2019-03-30T17:50:35.648Z,2.70
2019-03-30T17:53:06.310Z,3.30
2019-03-30T17:55:36.243Z,2.97
2019-03-30T17:58:13.373Z,3.43
2019-03-30T18:00:40.976Z,2.77
2019-03-30T18:03:11.109Z,2.67
2019-03-30T18:05:41.909Z,3.23
2019-03-30T18:08:13.164Z,3.57
2019-03-30T18:10:53.128Z,3.47
2019-03-30T18:13:24.327Z,3.20
2019-03-30T18:15:58.013Z,3.40
2019-03-30T18:18:28.488Z,3.27
2019-03-30T18:20:59.849Z,3.50
2019-03-30T18:23:30.682Z,3.43
2019-03-30T18:26:01.345Z,3.60
2019-03-30T18:28:32.153Z,3.60
2019-03-30T18:31:04.325Z,2.93
2019-03-30T18:33:35.825Z,3.50
2019-03-30T18:36:07.329Z,3.47
2019-03-30T18:38:38.178Z,3.30
2019-03-30T18:41:08.797Z,3.40
2019-03-30T18:43:42.965Z,3.60
2019-03-30T18:46:13.205Z,3.53
2019-03-30T18:48:45.540Z,3.50
2019-03-30T18:51:18.589Z,3.80
2019-03-30T18:53:55.422Z,3.67
2019-03-30T18:56:27.964Z,4.00
2019-03-30T18:58:58.872Z,4.03
2019-03-30T19:01:30.994Z,3.37
2019-03-30T19:04:01.500Z,3.10
2019-03-30T19:06:33.329Z,3.60
2019-03-30T19:09:05.573Z,3.67
2019-03-30T19:12:01.693Z,4.33
2019-03-30T19:14:36.436Z,4.27
2019-03-30T19:17:07.025Z,5.00
2019-03-30T19:19:37.837Z,4.57
2019-03-30T19:22:09.324Z,5.13
2019-03-30T19:24:41.154Z,5.03
2019-03-30T19:27:14.397Z,5.00
2019-03-30T19:29:49.351Z,5.10
2019-03-30T19:32:22.305Z,5.10
2019-03-30T19:34:53.005Z,5.30
2019-03-30T19:37:35.441Z,5.57
2019-03-30T19:40:08.594Z,5.87
2019-03-30T19:42:41.430Z,6.10
2019-03-30T19:45:17.641Z,5.80
2019-03-30T19:47:48.334Z,6.20
2019-03-30T19:50:18.885Z,6.57
2019-03-30T19:52:49.558Z,6.07
2019-03-30T19:55:21.787Z,6.70
2019-03-30T19:57:53.057Z,7.03
2019-03-30T20:00:24.520Z,7.03
2019-03-30T20:02:55.321Z,8.23
2019-03-30T20:05:25.893Z,7.50
2019-03-30T20:08:11.179Z,7.23
2019-03-30T20:10:31.486Z,6.40
2019-03-30T20:13:02.228Z,7.20
2019-03-30T20:15:32.506Z,7.40
2019-03-30T20:18:07.215Z,7.03
2019-03-30T20:20:39.329Z,7.33
2019-03-30T20:23:11.490Z,8.40
2019-03-30T20:25:41.834Z,7.40
2019-03-30T20:28:12.121Z,7.80
2019-03-30T20:30:42.153Z,8.00
2019-03-30T20:33:16.574Z,7.83
2019-03-30T20:35:48.201Z,9.03
2019-03-30T20:38:22.524Z,9.07
2019-03-30T20:40:57.125Z,8.90
2019-03-30T20:43:27.913Z,8.33
2019-03-30T20:45:58.817Z,9.77
2019-03-30T20:48:30.104Z,9.17
2019-03-30T20:51:01.018Z,8.87
2019-03-30T20:53:32.346Z,9.43
2019-03-30T20:56:03.242Z,9.23
2019-03-30T20:58:34.430Z,9.70
2019-03-30T21:01:06.041Z,10.80
2019-03-30T21:03:36.137Z,10.70
2019-03-30T21:06:06.906Z,11.03
2019-03-30T21:08:38.166Z,10.50
2019-03-30T21:11:10.070Z,11.40
2019-03-30T21:13:42.301Z,11.00
2019-03-30T21:16:14.682Z,12.00
2019-03-30T21:18:48.167Z,12.03
2019-03-30T21:21:19.049Z,12.07
2019-03-30T21:23:53.790Z,11.63
2019-03-30T21:26:28.591Z,11.33
2019-03-30T21:28:59.061Z,12.13
2019-03-30T21:31:30.203Z,12.47
2019-03-30T21:34:01.001Z,11.07
2019-03-30T21:36:31.298Z,12.77
2019-03-30T21:39:02.498Z,12.47
2019-03-30T21:41:33.289Z,12.70
2019-03-30T21:44:04.101Z,12.07
2019-03-30T21:46:35.532Z,11.73
2019-03-30T21:49:06.809Z,12.50
2019-03-30T21:51:37.773Z,11.93
2019-03-30T21:54:09.471Z,11.13
2019-03-30T21:56:41.123Z,11.30
2019-03-30T21:59:13.502Z,11.00
2019-03-30T22:01:44.788Z,9.57
2019-03-30T22:04:17.862Z,10.30
2019-03-30T22:06:49.341Z,8.73
2019-03-30T22:09:20.291Z,9.27
2019-03-30T22:11:51.880Z,9.40
2019-03-30T22:14:22.942Z,8.37
2019-03-30T22:16:54.329Z,8.63
2019-03-30T22:19:24.346Z,8.20
2019-03-30T22:21:54.667Z,7.20
2019-03-30T22:24:27.257Z,6.83
2019-03-30T22:26:59.505Z,7.13
2019-03-30T22:29:30.753Z,6.67
2019-03-30T22:32:01.994Z,6.00
2019-03-30T22:34:32.955Z,5.70
2019-03-30T22:37:03.807Z,5.37
2019-03-30T22:39:34.865Z,5.27
2019-03-30T22:42:05.369Z,5.03
2019-03-30T22:44:36.659Z,4.70
2019-03-30T22:47:17.423Z,4.23
2019-03-30T22:49:47.837Z,3.90
2019-03-30T22:52:20.369Z,4.40
2019-03-30T22:54:49.934Z,4.60
2019-03-30T22:57:20.360Z,3.57
2019-03-30T22:59:52.269Z,3.33
2019-03-30T23:02:23.712Z,3.30
2019-03-30T23:04:58.773Z,2.63
2019-03-30T23:07:30.984Z,3.17
2019-03-30T23:10:02.598Z,2.87
2019-03-30T23:12:34.399Z,2.50
2019-03-30T23:15:05.394Z,2.60
2019-03-30T23:17:36.045Z,2.47
2019-03-30T23:20:06.082Z,2.47
2019-03-30T23:22:36.996Z,2.63
2019-03-30T23:25:07.269Z,2.40
2019-03-30T23:27:39.253Z,2.00
2019-03-30T23:30:09.774Z,2.00
2019-03-30T23:32:42.015Z,2.03
2019-03-30T23:35:12.779Z,2.10
2019-03-30T23:37:44.036Z,1.67
2019-03-30T23:40:15.387Z,1.50
2019-03-30T23:42:47.521Z,1.50
2019-03-30T23:45:19.877Z,1.83
2019-03-30T23:47:50.602Z,1.70
2019-03-30T23:50:24.548Z,1.57
2019-03-30T23:52:57.686Z,1.60
2019-03-30T23:55:28.492Z,1.70
2019-03-30T23:58:02.677Z,1.50
